Terminal Aerodrome Forecast
Issued by NWS

Home | Current Version | Previous Version | Text Only | Print | Product List | Glossary On
Versions: 1 2 3 4 5 6 7 8 9 10 11 12 13 14 15 16 17 18 19 20 21 22 23 24 25 26
000
FTUS46 KSEW 271200 AAA
TAFCLM
TAF AMD
KCLM 271255Z 2713/2812 11006KT P6SM SCT045 BKN070
      TEMPO 2713/2716 -RA SCT025 OVC045
     FM272000 26008KT P6SM -RA BKN035 OVC080=

USA.gov is the U.S. government's official web portal to all federal, state and local government web resources and services.